EDFM/MHG METAR and TAF weather

Enter ICAO airport designator
Station Type Date Time Source
EDFM METAR 2019/06/20 06:50 UTC NOAA

EDFM 200650Z 22006KT 180V240 CAVOK 21/16 Q1013


Station Type Date Time Source
EDFM Decoded METAR 2019/06/20 06:50 UTC NOAA

Baden Wurttemberg, Neuostheim, Germany (EDFM) 49-28-21N 008-30-56E
Jun 20, 2019 - 02:50 AM EDT / 2019.06.20 0650 UTC
Wind: from the SW (220 degrees) at 7 MPH (6 KT) (direction variable):0
Visibility: greater than 7 mile(s):0
Temperature: 69 F (21 C)
Dew Point: 60 F (16 C)
Relative Humidity: 73%
Pressure (altimeter): 29.91 in. Hg (1013 hPa)
ob: EDFM 200650Z 22006KT 180V240 CAVOK 21/16 Q1013
cycle: 7

Station Type Date Time Source
EDFM TAF 2012/03/06 06:30 UTC NOAA

TAF EDFM 060519Z 0606/0621 15004KT 9999 FEW040

Example: see airport list